Winona, Missouri
Current Conditions -  °F | °C
As of 2:53 PM on Thursday 27 Nov 2014 (Local Time) from KUNO Reporting Station
Clear Clear  
Wind Chill: 38°   Ceiling: Unl
Heat Index: 42°   Visibility: 10mi
Dew Point: 19°   Wind: 7mph
Humidity: 40%   Direction: 260°W
Pressure: 30.43"   Gusts: NA
Location:  37.01°N, 91.32°W
Report Text: KUNO 272053Z AUTO 26006KT 10SM CLR 06/M07 A3043 RMK AO2 SLP310 T00561072 56013
Loading
Personal Weather Stations






























Interactive Weather Map New forecast layout! Learn more

10-Day Weather Forecast

Advertisements
Track Severe Weather on mobile